sensor_id;sensor_type;location;lat;lon;timestamp;P1;durP1;ratioP1;P2;durP2;ratioP2
58966;SDS011;44744;51.894;5.080;2024-01-07T00:04:19;11.20;;;9.30;;
58966;SDS011;44744;51.894;5.080;2024-01-07T00:09:20;13.60;;;10.50;;
58966;SDS011;44744;51.894;5.080;2024-01-07T00:14:20;17.00;;;12.10;;
58966;SDS011;44744;51.894;5.080;2024-01-07T00:19:21;16.10;;;12.50;;
58966;SDS011;44744;51.894;5.080;2024-01-07T00:24:21;15.20;;;11.10;;
58966;SDS011;44744;51.894;5.080;2024-01-07T00:29:22;14.50;;;11.20;;
58966;SDS011;44744;51.894;5.080;2024-01-07T00:34:22;12.50;;;10.30;;
58966;SDS011;44744;51.894;5.080;2024-01-07T00:39:24;13.10;;;10.30;;
58966;SDS011;44744;51.894;5.080;2024-01-07T00:44:24;13.40;;;10.30;;
58966;SDS011;44744;51.894;5.080;2024-01-07T00:49:25;13.70;;;10.30;;
58966;SDS011;44744;51.894;5.080;2024-01-07T00:54:26;12.80;;;10.20;;
58966;SDS011;44744;51.894;5.080;2024-01-07T00:59:27;13.20;;;10.10;;
58966;SDS011;44744;51.894;5.080;2024-01-07T01:04:29;13.90;;;10.30;;
58966;SDS011;44744;51.894;5.080;2024-01-07T01:09:30;13.50;;;10.50;;
58966;SDS011;44744;51.894;5.080;2024-01-07T01:14:30;14.20;;;10.80;;
58966;SDS011;44744;51.894;5.080;2024-01-07T01:19:31;15.00;;;11.00;;
58966;SDS011;44744;51.894;5.080;2024-01-07T01:24:31;13.20;;;10.70;;
58966;SDS011;44744;51.894;5.080;2024-01-07T01:29:32;14.00;;;10.90;;
58966;SDS011;44744;51.894;5.080;2024-01-07T01:34:32;19.20;;;13.60;;
58966;SDS011;44744;51.894;5.080;2024-01-07T01:39:33;17.20;;;13.50;;
58966;SDS011;44744;51.894;5.080;2024-01-07T01:44:33;16.40;;;12.70;;
58966;SDS011;44744;51.894;5.080;2024-01-07T01:49:34;16.50;;;11.90;;
58966;SDS011;44744;51.894;5.080;2024-01-07T01:54:36;16.40;;;11.40;;
58966;SDS011;44744;51.894;5.080;2024-01-07T01:59:37;15.20;;;11.40;;
58966;SDS011;44744;51.894;5.080;2024-01-07T02:04:37;15.30;;;11.20;;
58966;SDS011;44744;51.894;5.080;2024-01-07T02:09:38;14.70;;;11.00;;
58966;SDS011;44744;51.894;5.080;2024-01-07T02:14:40;16.70;;;12.10;;
58966;SDS011;44744;51.894;5.080;2024-01-07T02:19:40;15.30;;;11.50;;
58966;SDS011;44744;51.894;5.080;2024-01-07T02:24:41;14.40;;;11.30;;
58966;SDS011;44744;51.894;5.080;2024-01-07T02:29:41;15.30;;;11.90;;
58966;SDS011;44744;51.894;5.080;2024-01-07T02:34:42;15.60;;;11.70;;
58966;SDS011;44744;51.894;5.080;2024-01-07T02:39:42;17.30;;;12.20;;
58966;SDS011;44744;51.894;5.080;2024-01-07T02:44:44;15.20;;;11.50;;
58966;SDS011;44744;51.894;5.080;2024-01-07T02:49:45;17.00;;;12.50;;
58966;SDS011;44744;51.894;5.080;2024-01-07T02:54:46;16.30;;;11.50;;
58966;SDS011;44744;51.894;5.080;2024-01-07T02:59:46;18.10;;;13.20;;
58966;SDS011;44744;51.894;5.080;2024-01-07T03:04:46;19.80;;;13.40;;
58966;SDS011;44744;51.894;5.080;2024-01-07T03:09:48;19.20;;;13.30;;
58966;SDS011;44744;51.894;5.080;2024-01-07T03:14:49;17.40;;;12.70;;
58966;SDS011;44744;51.894;5.080;2024-01-07T03:19:49;19.50;;;13.30;;
58966;SDS011;44744;51.894;5.080;2024-01-07T03:24:50;19.10;;;13.10;;
58966;SDS011;44744;51.894;5.080;2024-01-07T03:29:50;19.10;;;13.10;;
58966;SDS011;44744;51.894;5.080;2024-01-07T03:34:51;18.80;;;13.20;;
58966;SDS011;44744;51.894;5.080;2024-01-07T03:39:53;19.60;;;14.00;;
58966;SDS011;44744;51.894;5.080;2024-01-07T03:44:54;22.60;;;15.10;;
58966;SDS011;44744;51.894;5.080;2024-01-07T03:49:54;20.80;;;14.30;;
58966;SDS011;44744;51.894;5.080;2024-01-07T03:54:55;22.50;;;15.40;;
58966;SDS011;44744;51.894;5.080;2024-01-07T03:59:55;19.90;;;14.40;;
58966;SDS011;44744;51.894;5.080;2024-01-07T04:04:56;23.30;;;15.00;;
58966;SDS011;44744;51.894;5.080;2024-01-07T04:09:56;24.30;;;15.10;;
58966;SDS011;44744;51.894;5.080;2024-01-07T04:14:56;20.10;;;14.20;;
58966;SDS011;44744;51.894;5.080;2024-01-07T04:19:57;22.70;;;15.50;;
58966;SDS011;44744;51.894;5.080;2024-01-07T04:24:57;20.20;;;13.80;;
58966;SDS011;44744;51.894;5.080;2024-01-07T04:29:58;21.60;;;14.00;;
58966;SDS011;44744;51.894;5.080;2024-01-07T04:34:58;21.90;;;14.10;;
58966;SDS011;44744;51.894;5.080;2024-01-07T04:40:00;20.20;;;14.20;;
58966;SDS011;44744;51.894;5.080;2024-01-07T04:45:00;20.60;;;13.90;;
58966;SDS011;44744;51.894;5.080;2024-01-07T04:50:01;21.50;;;14.40;;
58966;SDS011;44744;51.894;5.080;2024-01-07T04:55:03;23.20;;;15.60;;
58966;SDS011;44744;51.894;5.080;2024-01-07T05:00:04;19.10;;;13.20;;
58966;SDS011;44744;51.894;5.080;2024-01-07T05:05:07;20.30;;;12.80;;
58966;SDS011;44744;51.894;5.080;2024-01-07T05:10:08;23.60;;;14.10;;
58966;SDS011;44744;51.894;5.080;2024-01-07T05:15:09;20.20;;;12.80;;
58966;SDS011;44744;51.894;5.080;2024-01-07T05:20:09;21.10;;;13.00;;
58966;SDS011;44744;51.894;5.080;2024-01-07T05:25:10;20.60;;;14.20;;
58966;SDS011;44744;51.894;5.080;2024-01-07T05:30:11;23.20;;;15.70;;
58966;SDS011;44744;51.894;5.080;2024-01-07T05:35:11;23.40;;;15.90;;
58966;SDS011;44744;51.894;5.080;2024-01-07T05:40:12;24.40;;;15.10;;
58966;SDS011;44744;51.894;5.080;2024-01-07T05:45:13;22.00;;;14.20;;
58966;SDS011;44744;51.894;5.080;2024-01-07T05:50:13;21.00;;;13.80;;
58966;SDS011;44744;51.894;5.080;2024-01-07T05:55:16;20.90;;;14.60;;
58966;SDS011;44744;51.894;5.080;2024-01-07T06:00:16;23.40;;;15.90;;
58966;SDS011;44744;51.894;5.080;2024-01-07T06:05:17;21.30;;;13.80;;
58966;SDS011;44744;51.894;5.080;2024-01-07T06:10:17;22.60;;;14.30;;
58966;SDS011;44744;51.894;5.080;2024-01-07T06:15:18;19.40;;;13.50;;
58966;SDS011;44744;51.894;5.080;2024-01-07T06:20:19;19.00;;;12.90;;
58966;SDS011;44744;51.894;5.080;2024-01-07T06:25:19;15.60;;;11.70;;
58966;SDS011;44744;51.894;5.080;2024-01-07T06:30:20;23.80;;;14.00;;
58966;SDS011;44744;51.894;5.080;2024-01-07T06:35:20;19.20;;;12.10;;
58966;SDS011;44744;51.894;5.080;2024-01-07T06:40:22;17.80;;;11.00;;
58966;SDS011;44744;51.894;5.080;2024-01-07T06:45:22;19.80;;;11.60;;
58966;SDS011;44744;51.894;5.080;2024-01-07T06:50:23;17.50;;;11.30;;
58966;SDS011;44744;51.894;5.080;2024-01-07T06:55:24;15.00;;;10.60;;
58966;SDS011;44744;51.894;5.080;2024-01-07T07:00:24;15.30;;;11.50;;
58966;SDS011;44744;51.894;5.080;2024-01-07T07:05:27;15.00;;;10.30;;
58966;SDS011;44744;51.894;5.080;2024-01-07T07:10:28;13.60;;;10.90;;
58966;SDS011;44744;51.894;5.080;2024-01-07T07:15:28;15.50;;;11.10;;
58966;SDS011;44744;51.894;5.080;2024-01-07T07:20:28;16.30;;;12.20;;
58966;SDS011;44744;51.894;5.080;2024-01-07T07:25:29;14.10;;;10.40;;
58966;SDS011;44744;51.894;5.080;2024-01-07T07:30:29;17.30;;;12.00;;
58966;SDS011;44744;51.894;5.080;2024-01-07T07:35:30;19.50;;;12.20;;
58966;SDS011;44744;51.894;5.080;2024-01-07T07:40:30;14.60;;;11.20;;
58966;SDS011;44744;51.894;5.080;2024-01-07T07:45:31;14.70;;;11.20;;
58966;SDS011;44744;51.894;5.080;2024-01-07T07:50:32;13.10;;;9.50;;
58966;SDS011;44744;51.894;5.080;2024-01-07T07:55:32;13.40;;;10.30;;
58966;SDS011;44744;51.894;5.080;2024-01-07T08:00:33;16.00;;;11.00;;
58966;SDS011;44744;51.894;5.080;2024-01-07T08:05:33;17.10;;;10.30;;
58966;SDS011;44744;51.894;5.080;2024-01-07T08:10:34;15.20;;;11.90;;
58966;SDS011;44744;51.894;5.080;2024-01-07T08:15:41;15.10;;;10.40;;
58966;SDS011;44744;51.894;5.080;2024-01-07T08:20:42;14.50;;;10.70;;
58966;SDS011;44744;51.894;5.080;2024-01-07T08:25:45;13.40;;;10.20;;
58966;SDS011;44744;51.894;5.080;2024-01-07T08:30:56;14.90;;;11.00;;
58966;SDS011;44744;51.894;5.080;2024-01-07T08:35:56;12.80;;;10.90;;
58966;SDS011;44744;51.894;5.080;2024-01-07T08:40:57;14.00;;;11.40;;
58966;SDS011;44744;51.894;5.080;2024-01-07T08:45:57;16.10;;;12.50;;
58966;SDS011;44744;51.894;5.080;2024-01-07T08:50:58;14.00;;;10.80;;
58966;SDS011;44744;51.894;5.080;2024-01-07T08:55:59;16.20;;;10.80;;
58966;SDS011;44744;51.894;5.080;2024-01-07T09:01:00;13.40;;;10.80;;
58966;SDS011;44744;51.894;5.080;2024-01-07T09:06:00;16.20;;;11.90;;
58966;SDS011;44744;51.894;5.080;2024-01-07T09:11:03;15.30;;;10.90;;
58966;SDS011;44744;51.894;5.080;2024-01-07T09:16:17;11.10;;;8.30;;
58966;SDS011;44744;51.894;5.080;2024-01-07T09:21:31;10.80;;;8.20;;
58966;SDS011;44744;51.894;5.080;2024-01-07T09:26:31;10.30;;;7.90;;
58966;SDS011;44744;51.894;5.080;2024-01-07T09:31:32;9.60;;;8.00;;
58966;SDS011;44744;51.894;5.080;2024-01-07T09:36:36;11.70;;;8.70;;
58966;SDS011;44744;51.894;5.080;2024-01-07T09:41:36;10.00;;;7.90;;
58966;SDS011;44744;51.894;5.080;2024-01-07T09:46:37;11.30;;;8.60;;
58966;SDS011;44744;51.894;5.080;2024-01-07T09:51:40;11.10;;;8.20;;
58966;SDS011;44744;51.894;5.080;2024-01-07T09:56:50;13.40;;;8.00;;
58966;SDS011;44744;51.894;5.080;2024-01-07T10:01:56;14.30;;;9.20;;
58966;SDS011;44744;51.894;5.080;2024-01-07T10:06:57;10.30;;;7.80;;
58966;SDS011;44744;51.894;5.080;2024-01-07T10:12:09;10.00;;;7.10;;
58966;SDS011;44744;51.894;5.080;2024-01-07T10:22:50;12.50;;;8.60;;
58966;SDS011;44744;51.894;5.080;2024-01-07T10:28:15;10.60;;;7.70;;
58966;SDS011;44744;51.894;5.080;2024-01-07T10:33:39;11.10;;;8.50;;
58966;SDS011;44744;51.894;5.080;2024-01-07T10:38:54;10.50;;;7.00;;
58966;SDS011;44744;51.894;5.080;2024-01-07T10:44:05;12.00;;;8.40;;
58966;SDS011;44744;51.894;5.080;2024-01-07T10:49:24;10.40;;;8.20;;
58966;SDS011;44744;51.894;5.080;2024-01-07T10:54:25;11.60;;;8.80;;
58966;SDS011;44744;51.894;5.080;2024-01-07T10:59:33;12.00;;;8.10;;
58966;SDS011;44744;51.894;5.080;2024-01-07T11:04:41;12.10;;;8.40;;
58966;SDS011;44744;51.894;5.080;2024-01-07T11:15:06;9.50;;;6.80;;
58966;SDS011;44744;51.894;5.080;2024-01-07T11:20:30;10.00;;;6.70;;
58966;SDS011;44744;51.894;5.080;2024-01-07T11:25:35;10.60;;;6.30;;
58966;SDS011;44744;51.894;5.080;2024-01-07T11:30:40;9.70;;;6.10;;
58966;SDS011;44744;51.894;5.080;2024-01-07T11:35:54;6.60;;;5.30;;
58966;SDS011;44744;51.894;5.080;2024-01-07T11:40:59;7.90;;;5.10;;
58966;SDS011;44744;51.894;5.080;2024-01-07T11:46:01;8.00;;;4.90;;
58966;SDS011;44744;51.894;5.080;2024-01-07T11:51:01;7.40;;;5.40;;
58966;SDS011;44744;51.894;5.080;2024-01-07T11:56:08;9.00;;;6.40;;
58966;SDS011;44744;51.894;5.080;2024-01-07T12:01:21;6.00;;;4.90;;
58966;SDS011;44744;51.894;5.080;2024-01-07T12:06:22;6.70;;;5.00;;
58966;SDS011;44744;51.894;5.080;2024-01-07T12:11:23;6.20;;;5.10;;
58966;SDS011;44744;51.894;5.080;2024-01-07T12:16:23;7.20;;;5.20;;
58966;SDS011;44744;51.894;5.080;2024-01-07T12:21:25;6.70;;;5.10;;
58966;SDS011;44744;51.894;5.080;2024-01-07T12:26:29;9.00;;;5.20;;
58966;SDS011;44744;51.894;5.080;2024-01-07T12:31:31;5.10;;;3.60;;
58966;SDS011;44744;51.894;5.080;2024-01-07T12:36:32;5.70;;;3.80;;
58966;SDS011;44744;51.894;5.080;2024-01-07T12:41:33;4.40;;;2.90;;
58966;SDS011;44744;51.894;5.080;2024-01-07T12:46:34;5.70;;;3.40;;
58966;SDS011;44744;51.894;5.080;2024-01-07T12:51:35;5.50;;;3.00;;
58966;SDS011;44744;51.894;5.080;2024-01-07T12:56:36;4.90;;;2.80;;
58966;SDS011;44744;51.894;5.080;2024-01-07T13:01:58;6.20;;;2.70;;
58966;SDS011;44744;51.894;5.080;2024-01-07T13:07:18;5.70;;;3.00;;
58966;SDS011;44744;51.894;5.080;2024-01-07T14:22:57;3.90;;;2.40;;
58966;SDS011;44744;51.894;5.080;2024-01-07T14:28:11;3.50;;;2.10;;
58966;SDS011;44744;51.894;5.080;2024-01-07T14:54:56;4.70;;;2.70;;
58966;SDS011;44744;51.894;5.080;2024-01-07T15:00:11;3.80;;;2.30;;
58966;SDS011;44744;51.894;5.080;2024-01-07T15:05:17;3.80;;;2.20;;
58966;SDS011;44744;51.894;5.080;2024-01-07T15:10:21;5.00;;;2.60;;
58966;SDS011;44744;51.894;5.080;2024-01-07T15:15:24;3.20;;;2.30;;
58966;SDS011;44744;51.894;5.080;2024-01-07T15:20:30;3.50;;;2.40;;
58966;SDS011;44744;51.894;5.080;2024-01-07T15:25:36;4.80;;;2.90;;
58966;SDS011;44744;51.894;5.080;2024-01-07T15:30:46;3.50;;;2.30;;
58966;SDS011;44744;51.894;5.080;2024-01-07T15:35:57;4.10;;;2.30;;
58966;SDS011;44744;51.894;5.080;2024-01-07T15:41:03;6.90;;;2.30;;
58966;SDS011;44744;51.894;5.080;2024-01-07T15:46:19;3.80;;;2.20;;
58966;SDS011;44744;51.894;5.080;2024-01-07T15:51:29;3.80;;;2.70;;
58966;SDS011;44744;51.894;5.080;2024-01-07T16:07:25;5.20;;;2.60;;
58966;SDS011;44744;51.894;5.080;2024-01-07T16:12:33;5.10;;;3.10;;
58966;SDS011;44744;51.894;5.080;2024-01-07T16:23:00;5.30;;;2.90;;
58966;SDS011;44744;51.894;5.080;2024-01-07T16:28:01;5.20;;;2.80;;
58966;SDS011;44744;51.894;5.080;2024-01-07T16:33:02;4.90;;;2.70;;
58966;SDS011;44744;51.894;5.080;2024-01-07T16:38:26;8.50;;;4.60;;
58966;SDS011;44744;51.894;5.080;2024-01-07T16:49:16;7.70;;;4.20;;
58966;SDS011;44744;51.894;5.080;2024-01-07T16:54:29;7.30;;;4.10;;
58966;SDS011;44744;51.894;5.080;2024-01-07T16:59:43;7.50;;;5.50;;
58966;SDS011;44744;51.894;5.080;2024-01-07T17:04:51;7.30;;;4.80;;
58966;SDS011;44744;51.894;5.080;2024-01-07T17:15:17;10.10;;;5.90;;
58966;SDS011;44744;51.894;5.080;2024-01-07T17:20:28;10.60;;;6.50;;
58966;SDS011;44744;51.894;5.080;2024-01-07T17:25:32;14.80;;;10.20;;
58966;SDS011;44744;51.894;5.080;2024-01-07T17:30:32;8.90;;;5.70;;
58966;SDS011;44744;51.894;5.080;2024-01-07T17:35:32;8.10;;;4.70;;
58966;SDS011;44744;51.894;5.080;2024-01-07T17:40:33;8.20;;;4.70;;
58966;SDS011;44744;51.894;5.080;2024-01-07T17:45:33;6.40;;;4.20;;
58966;SDS011;44744;51.894;5.080;2024-01-07T17:50:34;9.70;;;4.90;;
58966;SDS011;44744;51.894;5.080;2024-01-07T17:55:39;6.80;;;4.00;;
58966;SDS011;44744;51.894;5.080;2024-01-07T18:00:40;6.80;;;5.20;;
58966;SDS011;44744;51.894;5.080;2024-01-07T18:05:47;8.40;;;4.80;;
58966;SDS011;44744;51.894;5.080;2024-01-07T18:15:48;8.70;;;5.40;;
58966;SDS011;44744;51.894;5.080;2024-01-07T18:25:52;8.50;;;5.10;;
58966;SDS011;44744;51.894;5.080;2024-01-07T18:36:19;7.20;;;4.20;;
58966;SDS011;44744;51.894;5.080;2024-01-07T18:41:19;7.40;;;4.40;;
58966;SDS011;44744;51.894;5.080;2024-01-07T18:46:20;8.30;;;5.60;;
58966;SDS011;44744;51.894;5.080;2024-01-07T18:51:27;10.20;;;5.00;;
58966;SDS011;44744;51.894;5.080;2024-01-07T18:56:38;7.90;;;4.90;;
58966;SDS011;44744;51.894;5.080;2024-01-07T19:01:50;9.60;;;5.50;;
58966;SDS011;44744;51.894;5.080;2024-01-07T19:06:53;9.80;;;6.10;;
58966;SDS011;44744;51.894;5.080;2024-01-07T19:11:57;7.10;;;5.20;;
58966;SDS011;44744;51.894;5.080;2024-01-07T19:17:01;10.30;;;5.40;;
58966;SDS011;44744;51.894;5.080;2024-01-07T19:22:02;7.30;;;4.90;;
58966;SDS011;44744;51.894;5.080;2024-01-07T19:27:04;13.60;;;6.50;;
58966;SDS011;44744;51.894;5.080;2024-01-07T19:37:07;10.60;;;6.20;;
58966;SDS011;44744;51.894;5.080;2024-01-07T19:42:10;13.20;;;7.20;;
58966;SDS011;44744;51.894;5.080;2024-01-07T19:47:13;13.90;;;6.70;;
58966;SDS011;44744;51.894;5.080;2024-01-07T19:52:13;9.90;;;6.20;;
58966;SDS011;44744;51.894;5.080;2024-01-07T19:57:14;10.80;;;5.90;;
58966;SDS011;44744;51.894;5.080;2024-01-07T20:02:14;10.20;;;6.10;;
58966;SDS011;44744;51.894;5.080;2024-01-07T20:07:16;10.30;;;6.20;;
58966;SDS011;44744;51.894;5.080;2024-01-07T20:12:16;13.90;;;5.90;;
58966;SDS011;44744;51.894;5.080;2024-01-07T20:17:17;12.60;;;6.10;;
58966;SDS011;44744;51.894;5.080;2024-01-07T20:22:19;9.00;;;5.80;;
58966;SDS011;44744;51.894;5.080;2024-01-07T20:27:19;9.80;;;5.60;;
58966;SDS011;44744;51.894;5.080;2024-01-07T20:32:25;8.50;;;5.90;;
58966;SDS011;44744;51.894;5.080;2024-01-07T20:37:26;9.70;;;6.20;;
58966;SDS011;44744;51.894;5.080;2024-01-07T20:42:26;12.70;;;7.00;;
58966;SDS011;44744;51.894;5.080;2024-01-07T20:47:27;8.60;;;6.00;;
58966;SDS011;44744;51.894;5.080;2024-01-07T20:52:27;9.60;;;5.90;;
58966;SDS011;44744;51.894;5.080;2024-01-07T20:57:28;9.70;;;6.90;;
58966;SDS011;44744;51.894;5.080;2024-01-07T21:02:29;9.30;;;6.50;;
58966;SDS011;44744;51.894;5.080;2024-01-07T21:07:30;9.40;;;6.20;;
58966;SDS011;44744;51.894;5.080;2024-01-07T21:12:31;11.60;;;6.70;;
58966;SDS011;44744;51.894;5.080;2024-01-07T21:17:31;10.00;;;6.10;;
58966;SDS011;44744;51.894;5.080;2024-01-07T21:22:35;12.90;;;6.30;;
58966;SDS011;44744;51.894;5.080;2024-01-07T21:27:36;8.80;;;5.60;;
58966;SDS011;44744;51.894;5.080;2024-01-07T21:32:37;9.40;;;5.00;;
58966;SDS011;44744;51.894;5.080;2024-01-07T21:37:38;9.20;;;5.00;;
58966;SDS011;44744;51.894;5.080;2024-01-07T21:42:38;7.10;;;4.00;;
58966;SDS011;44744;51.894;5.080;2024-01-07T21:47:39;6.30;;;4.30;;
58966;SDS011;44744;51.894;5.080;2024-01-07T21:52:53;8.00;;;4.50;;
58966;SDS011;44744;51.894;5.080;2024-01-07T21:57:54;9.00;;;4.50;;
58966;SDS011;44744;51.894;5.080;2024-01-07T22:02:55;7.30;;;4.60;;
58966;SDS011;44744;51.894;5.080;2024-01-07T22:07:55;7.50;;;4.70;;
58966;SDS011;44744;51.894;5.080;2024-01-07T22:12:58;7.90;;;4.90;;
58966;SDS011;44744;51.894;5.080;2024-01-07T22:18:04;8.90;;;5.60;;
58966;SDS011;44744;51.894;5.080;2024-01-07T22:23:08;9.70;;;5.20;;
58966;SDS011;44744;51.894;5.080;2024-01-07T22:28:09;7.60;;;4.90;;
58966;SDS011;44744;51.894;5.080;2024-01-07T22:33:09;7.90;;;5.00;;
58966;SDS011;44744;51.894;5.080;2024-01-07T22:38:10;8.00;;;4.50;;
58966;SDS011;44744;51.894;5.080;2024-01-07T22:43:13;7.90;;;4.50;;
58966;SDS011;44744;51.894;5.080;2024-01-07T22:48:17;6.90;;;4.30;;
58966;SDS011;44744;51.894;5.080;2024-01-07T22:53:18;5.30;;;3.50;;
58966;SDS011;44744;51.894;5.080;2024-01-07T22:58:19;6.60;;;3.90;;
58966;SDS011;44744;51.894;5.080;2024-01-07T23:03:22;4.90;;;3.30;;
58966;SDS011;44744;51.894;5.080;2024-01-07T23:08:22;5.40;;;3.40;;
58966;SDS011;44744;51.894;5.080;2024-01-07T23:13:22;4.60;;;3.50;;
58966;SDS011;44744;51.894;5.080;2024-01-07T23:18:23;5.80;;;3.40;;
58966;SDS011;44744;51.894;5.080;2024-01-07T23:23:23;3.60;;;2.60;;
58966;SDS011;44744;51.894;5.080;2024-01-07T23:28:24;6.60;;;3.60;;
58966;SDS011;44744;51.894;5.080;2024-01-07T23:33:24;5.90;;;3.50;;
58966;SDS011;44744;51.894;5.080;2024-01-07T23:38:25;6.10;;;3.50;;
58966;SDS011;44744;51.894;5.080;2024-01-07T23:43:25;5.00;;;3.50;;
58966;SDS011;44744;51.894;5.080;2024-01-07T23:48:26;5.10;;;3.40;;
58966;SDS011;44744;51.894;5.080;2024-01-07T23:53:28;9.00;;;3.60;;
58966;SDS011;44744;51.894;5.080;2024-01-07T23:58:28;5.30;;;3.10;;
